Time;durP1;ratioP1;P1;durP2;ratioP2;P2;SDS_P1;SDS_P2;PMS_P1;PMS_P2;Temp;Humidity;BMP_temperature;BMP_pressure;BME280_temperature;BME280_humidity;BME280_pressure;Samples;Min_cycle;Max_cycle;Signal;HPM_P1;HPM_P2
2021/08/16 00:00:19;;;;;;;9.40;7.85;;;;;;;20.24;71.21;95253.06;5117806;27;20219;-76
2021/08/16 00:02:45;;;;;;;10.32;7.70;;;;;;;20.22;71.43;95260.34;5117511;27;20171;-76
2021/08/16 00:05:11;;;;;;;9.95;8.00;;;;;;;20.15;71.88;95257.00;5117567;27;20259;-76
2021/08/16 00:07:36;;;;;;;9.68;8.50;;;;;;;20.12;72.06;95244.22;5117310;27;20269;-76
2021/08/16 00:10:02;;;;;;;10.02;7.68;;;;;;;20.15;72.04;95247.25;5100664;27;20548;-76
2021/08/16 00:12:27;;;;;;;12.65;8.68;;;;;;;20.11;72.18;95253.16;5135656;27;20163;-77
2021/08/16 00:14:53;;;;;;;9.63;8.18;;;;;;;20.11;72.43;95250.50;5117506;27;20530;-76
2021/08/16 00:17:18;;;;;;;12.00;8.60;;;;;;;20.07;72.25;95237.78;5117411;27;20281;-76
2021/08/16 00:19:43;;;;;;;9.07;8.15;;;;;;;20.03;72.73;95241.03;5135576;27;20209;-76
2021/08/16 00:22:09;;;;;;;10.70;7.80;;;;;;;20.04;72.17;95240.81;5135623;27;20168;-76
2021/08/16 00:24:34;;;;;;;9.60;7.70;;;;;;;20.01;72.11;95235.19;5100265;27;20218;-76
2021/08/16 00:27:00;;;;;;;12.15;8.18;;;;;;;20.04;72.19;95232.91;5135740;27;20281;-76
2021/08/16 00:29:25;;;;;;;9.45;8.48;;;;;;;20.06;71.85;95236.16;5135468;27;20160;-76
2021/08/16 00:31:51;;;;;;;10.68;8.05;;;;;;;19.97;72.17;95237.44;5116984;27;20182;-76
2021/08/16 00:34:16;;;;;;;9.05;7.65;;;;;;;19.90;72.27;95235.88;5135457;27;20167;-76
2021/08/16 00:36:42;;;;;;;9.35;8.15;;;;;;;19.94;71.92;95237.84;5117121;27;20195;-77
2021/08/16 00:39:07;;;;;;;10.98;8.05;;;;;;;19.96;71.75;95242.91;5117102;27;20659;-76
2021/08/16 00:41:33;;;;;;;10.50;7.50;;;;;;;19.93;71.67;95244.13;5092778;28;20263;-76
2021/08/16 00:43:59;;;;;;;12.18;8.18;;;;;;;19.96;71.69;95243.72;5079599;28;20175;-76
2021/08/16 00:46:25;;;;;;;11.93;7.60;;;;;;;19.93;71.85;95233.59;5096322;28;20202;-76
2021/08/16 00:48:50;;;;;;;9.73;7.88;;;;;;;19.99;71.66;95237.22;5096591;28;20179;-76
2021/08/16 00:51:15;;;;;;;8.88;7.43;;;;;;;20.03;71.81;95225.22;5095476;28;20181;-76
2021/08/16 00:53:41;;;;;;;12.27;7.75;;;;;;;20.02;71.89;95224.41;5079372;28;20168;-76
2021/08/16 00:56:07;;;;;;;8.75;7.85;;;;;;;20.05;71.49;95223.16;5084121;28;20215;-77
2021/08/16 00:58:33;;;;;;;8.73;7.72;;;;;;;20.01;72.09;95222.81;5096167;28;20202;-76
2021/08/16 01:00:59;;;;;;;9.70;8.70;;;;;;;20.02;71.88;95223.59;5096287;28;20180;-76
2021/08/16 01:03:25;;;;;;;11.20;8.23;;;;;;;19.96;71.86;95230.53;5096031;28;20635;-76
2021/08/16 01:05:51;;;;;;;10.57;7.53;;;;;;;19.89;71.93;95221.88;5114926;27;20273;-77
2021/08/16 01:08:16;;;;;;;10.75;7.50;;;;;;;19.91;72.08;95227.75;5115013;27;20180;-76
2021/08/16 01:10:42;;;;;;;11.48;7.97;;;;;;;19.91;71.98;95233.00;5114412;27;20636;-76
2021/08/16 01:13:07;;;;;;;11.73;7.40;;;;;;;19.88;72.46;95230.81;5113791;27;20657;-75
2021/08/16 01:15:33;;;;;;;8.57;7.68;;;;;;;19.86;72.39;95235.47;5115046;27;20175;-76
2021/08/16 01:17:59;;;;;;;9.00;8.05;;;;;;;19.80;72.55;95234.50;5115098;27;20199;-76
2021/08/16 01:20:24;;;;;;;10.77;7.90;;;;;;;19.81;72.35;95230.03;5115500;27;20545;-76
2021/08/16 01:22:50;;;;;;;10.30;7.75;;;;;;;19.90;72.26;95231.41;5115261;27;20236;-75
2021/08/16 01:25:15;;;;;;;12.18;9.02;;;;;;;20.03;71.78;95239.19;5133862;27;20214;-76
2021/08/16 01:27:41;;;;;;;9.90;7.57;;;;;;;20.17;71.44;95228.56;5116033;27;20195;-76
2021/08/16 01:30:13;;;;;;;10.93;8.50;;;;;;;20.25;71.59;95221.22;5098902;27;20646;-76
2021/08/16 01:32:40;;;;;;;14.27;7.88;;;;;;;20.36;70.92;95232.88;5134013;27;20232;-77
2021/08/16 01:35:06;;;;;;;9.65;7.40;;;;;;;20.41;70.96;95214.59;5115836;27;20594;-76
2021/08/16 01:37:32;;;;;;;9.32;7.75;;;;;;;20.47;70.57;95212.94;5133939;27;20229;-75
2021/08/16 01:39:57;;;;;;;9.43;8.45;;;;;;;20.46;70.62;95213.97;5115016;27;20220;-76
2021/08/16 01:42:22;;;;;;;9.75;7.82;;;;;;;20.50;70.53;95209.88;5115169;27;20199;-76
2021/08/16 01:44:48;;;;;;;10.10;7.82;;;;;;;20.48;70.44;95212.72;5115846;27;20262;-78
2021/08/16 01:47:13;;;;;;;11.88;8.45;;;;;;;20.51;70.54;95206.22;5115816;27;20278;-76
2021/08/16 01:49:38;;;;;;;11.57;8.38;;;;;;;20.44;70.88;95216.81;5133427;27;20224;-76
2021/08/16 01:52:04;;;;;;;11.95;7.72;;;;;;;20.50;70.71;95210.69;5114458;27;20224;-76
2021/08/16 01:54:29;;;;;;;9.00;8.10;;;;;;;20.38;71.03;95217.63;5118175;27;20182;-77
2021/08/16 01:56:55;;;;;;;9.57;8.25;;;;;;;20.44;70.53;95224.72;5125871;27;20194;-77
2021/08/16 01:59:20;;;;;;;10.73;8.23;;;;;;;20.38;70.63;95228.19;5122343;27;20218;-76
2021/08/16 02:01:45;;;;;;;12.70;7.97;;;;;;;20.31;71.22;95224.78;5132843;27;20206;-76
2021/08/16 02:04:10;;;;;;;9.35;7.57;;;;;;;20.41;70.59;95216.38;5132168;27;20274;-76
2021/08/16 02:06:36;;;;;;;8.90;7.97;;;;;;;20.38;70.91;95215.00;5095887;27;20662;-76
2021/08/16 02:09:02;;;;;;;9.55;7.57;;;;;;;20.41;70.43;95222.50;5114709;27;20252;-75
2021/08/16 02:11:27;;;;;;;10.93;7.53;;;;;;;20.41;70.42;95221.66;5114395;27;20171;-76
2021/08/16 02:13:52;;;;;;;10.07;8.10;;;;;;;20.41;70.14;95217.22;5114739;27;20167;-75
2021/08/16 02:16:18;;;;;;;12.82;7.13;;;;;;;20.31;70.43;95227.44;5132396;27;20215;-76
2021/08/16 02:18:43;;;;;;;10.18;7.68;;;;;;;20.38;70.10;95230.81;5132587;27;20294;-76
2021/08/16 02:21:09;;;;;;;11.23;7.85;;;;;;;20.35;70.28;95241.81;5114031;27;20257;-76
2021/08/16 02:23:34;;;;;;;12.18;7.70;;;;;;;20.29;70.69;95235.56;5114142;27;20175;-76
2021/08/16 02:25:59;;;;;;;10.23;7.90;;;;;;;20.17;71.00;95239.94;5097896;27;20305;-76
2021/08/16 02:28:25;;;;;;;11.05;7.82;;;;;;;20.18;71.31;95236.25;5114952;27;20187;-76
2021/08/16 02:30:50;;;;;;;11.32;7.90;;;;;;;20.09;71.25;95238.34;5114912;27;20254;-76
2021/08/16 02:33:16;;;;;;;10.15;7.97;;;;;;;20.01;72.12;95246.53;5132642;27;20175;-75
2021/08/16 02:35:42;;;;;;;11.90;7.63;;;;;;;20.07;71.62;95243.03;5114917;27;20171;-76
2021/08/16 02:38:08;;;;;;;8.57;7.70;;;;;;;20.02;72.19;95244.69;5114488;27;20203;-75
2021/08/16 02:40:33;;;;;;;9.73;8.13;;;;;;;19.98;72.13;95248.78;5114537;27;20350;-75
2021/08/16 02:42:59;;;;;;;12.50;8.30;;;;;;;19.98;72.40;95254.06;5114436;27;20553;-76
2021/08/16 02:45:25;;;;;;;10.35;7.78;;;;;;;19.91;72.29;95251.47;5133146;27;20242;-76
2021/08/16 02:47:50;;;;;;;12.18;7.97;;;;;;;19.92;72.37;95242.53;5114521;27;20194;-76
2021/08/16 02:50:16;;;;;;;11.50;8.32;;;;;;;19.87;72.80;95247.63;5132915;27;20182;-76
2021/08/16 02:52:41;;;;;;;11.75;7.63;;;;;;;19.82;72.85;95249.28;5114429;27;20178;-76
2021/08/16 02:55:07;;;;;;;9.57;8.32;;;;;;;19.76;73.09;95245.66;5114325;27;20192;-75
2021/08/16 02:57:32;;;;;;;11.63;7.95;;;;;;;19.72;73.43;95240.03;5114610;27;20198;-76
2021/08/16 02:59:58;;;;;;;10.18;7.82;;;;;;;19.69;73.52;95248.31;5114212;28;20195;-76
2021/08/16 03:02:23;;;;;;;8.73;7.82;;;;;;;19.66;73.70;95250.59;5114477;27;20210;-76
2021/08/16 03:04:49;;;;;;;11.25;7.95;;;;;;;19.62;74.00;95254.69;5114494;27;20174;-76
2021/08/16 03:07:14;;;;;;;10.23;7.97;;;;;;;19.64;74.21;95263.97;5132746;28;20194;-76
2021/08/16 03:09:40;;;;;;;10.43;7.82;;;;;;;19.63;74.07;95264.19;5114306;28;20209;-76
2021/08/16 03:12:06;;;;;;;11.25;7.97;;;;;;;19.59;74.14;95271.69;5114377;28;20206;-77
2021/08/16 03:14:32;;;;;;;9.13;8.23;;;;;;;19.50;74.49;95272.91;5115962;27;20262;-76
2021/08/16 03:16:57;;;;;;;10.57;8.35;;;;;;;19.47;74.49;95273.34;5118603;27;20274;-76
2021/08/16 03:19:22;;;;;;;10.48;7.60;;;;;;;19.45;74.92;95286.72;5137027;27;20221;-76
2021/08/16 03:21:48;;;;;;;8.63;7.82;;;;;;;19.45;75.02;95281.47;5101354;27;20175;-76
2021/08/16 03:24:13;;;;;;;9.30;8.10;;;;;;;19.38;75.21;95282.50;5118372;27;20175;-75
2021/08/16 03:26:38;;;;;;;9.65;8.65;;;;;;;19.29;75.58;95291.66;5118372;27;20210;-76
2021/08/16 03:29:04;;;;;;;10.27;8.85;;;;;;;19.19;76.33;95290.25;5136752;27;20170;-76
2021/08/16 03:31:29;;;;;;;11.45;8.48;;;;;;;19.20;75.87;95289.22;5136517;27;20182;-76
2021/08/16 03:33:54;;;;;;;10.63;8.52;;;;;;;19.19;76.25;95292.88;5118334;27;20254;-76
2021/08/16 03:36:20;;;;;;;9.70;7.57;;;;;;;19.11;76.30;95306.28;5101049;27;20284;-76
2021/08/16 03:38:45;;;;;;;11.10;8.70;;;;;;;19.12;76.53;95317.59;5118171;27;20285;-75
2021/08/16 03:41:10;;;;;;;14.82;8.85;;;;;;;19.07;76.40;95315.56;5136389;27;20205;-75
2021/08/16 03:43:36;;;;;;;9.15;8.25;;;;;;;19.06;76.75;95318.41;5118055;27;20297;-75
2021/08/16 03:46:01;;;;;;;9.77;8.60;;;;;;;18.95;77.13;95315.41;5117978;27;20220;-75
2021/08/16 03:48:26;;;;;;;14.18;8.25;;;;;;;18.93;77.04;95319.25;5118195;27;20159;-76
2021/08/16 03:50:52;;;;;;;12.52;9.60;;;;;;;18.84;77.40;95325.75;5136404;27;20197;-76
2021/08/16 03:53:17;;;;;;;12.23;8.65;;;;;;;18.89;76.90;95318.03;5117639;27;20171;-76
2021/08/16 03:55:43;;;;;;;13.25;8.32;;;;;;;18.86;76.79;95329.78;5136162;27;20183;-75
2021/08/16 03:58:08;;;;;;;9.52;8.30;;;;;;;18.81;76.65;95326.94;5117868;27;20199;-75
2021/08/16 04:00:34;;;;;;;11.55;8.65;;;;;;;18.74;76.55;95330.63;5100743;27;20219;-75
2021/08/16 04:02:59;;;;;;;12.98;8.65;;;;;;;18.75;76.28;95327.78;5117859;27;20182;-76
2021/08/16 04:05:53;;;;;;;10.60;8.70;;;;;;;18.67;76.70;95335.88;5117591;27;20167;-76
2021/08/16 04:08:18;;;;;;;11.02;8.77;;;;;;;18.60;76.69;95322.69;5089558;27;20232;-75
2021/08/16 04:10:43;;;;;;;8.98;7.95;;;;;;;18.62;76.20;95338.25;5136256;27;20179;-75
2021/08/16 04:13:09;;;;;;;12.43;8.38;;;;;;;18.54;76.15;95341.09;5135955;27;20707;-75
2021/08/16 04:15:34;;;;;;;10.60;7.82;;;;;;;18.53;75.23;95323.69;5100751;27;20183;-74
2021/08/16 04:17:59;;;;;;;10.20;8.43;;;;;;;18.53;75.60;95334.22;5100708;27;20299;-75
2021/08/16 04:20:25;;;;;;;11.68;8.13;;;;;;;18.43;76.15;95334.63;5100426;27;20615;-76
2021/08/16 04:22:50;;;;;;;11.15;7.63;;;;;;;18.45;75.82;95342.28;5135849;27;20175;-76
2021/08/16 04:25:17;;;;;;;13.20;8.55;;;;;;;18.41;75.93;95331.38;5100074;27;20171;-76
2021/08/16 04:27:43;;;;;;;11.93;8.02;;;;;;;18.45;75.93;95327.31;5099916;27;20195;-74
2021/08/16 04:30:09;;;;;;;15.48;7.97;;;;;;;18.48;75.53;95334.03;5117501;27;20240;-76
2021/08/16 04:32:34;;;;;;;10.55;7.57;;;;;;;18.45;75.94;95331.78;5117027;27;20187;-75
2021/08/16 04:35:00;;;;;;;14.50;7.53;;;;;;;18.39;75.69;95338.66;5100528;27;20175;-75
2021/08/16 04:37:25;;;;;;;10.23;7.90;;;;;;;18.49;75.26;95339.06;5117431;27;20247;-76
2021/08/16 04:39:51;;;;;;;12.10;7.50;;;;;;;18.49;74.37;95344.34;5117526;27;20207;-75
2021/08/16 04:42:16;;;;;;;8.90;7.90;;;;;;;18.58;74.39;95345.75;5129183;27;20178;-74
2021/08/16 04:44:42;;;;;;;9.02;7.18;;;;;;;18.60;74.09;95337.66;5131865;27;20247;-73
2021/08/16 04:47:07;;;;;;;10.45;8.07;;;;;;;18.55;73.57;95343.53;5115803;27;20202;-74
2021/08/16 04:49:32;;;;;;;10.55;6.38;;;;;;;18.62;73.28;95348.78;5119926;27;20182;-74
2021/08/16 04:51:58;;;;;;;13.23;7.35;;;;;;;18.66;72.74;95339.53;5131553;27;20181;-73
2021/08/16 04:54:23;;;;;;;10.43;7.25;;;;;;;18.56;73.63;95354.88;5146814;27;20251;-76
2021/08/16 04:56:48;;;;;;;9.25;7.10;;;;;;;18.63;73.02;95351.19;5122705;27;20206;-74
2021/08/16 04:59:14;;;;;;;7.55;6.70;;;;;;;18.70;72.79;95358.31;5131563;27;20202;-75
2021/08/16 05:01:39;;;;;;;11.48;6.45;;;;;;;18.74;72.74;95370.06;5132804;27;20178;-74
2021/08/16 05:04:05;;;;;;;9.77;6.95;;;;;;;18.87;71.44;95370.88;5150006;27;20171;-74
2021/08/16 05:06:32;;;;;;;11.57;7.28;;;;;;;18.96;71.12;95367.00;5105811;27;20195;-76
2021/08/16 05:09:02;;;;;;;12.02;6.63;;;;;;;19.10;70.39;95362.56;5116852;27;20183;-75
2021/08/16 05:11:27;;;;;;;15.25;7.13;;;;;;;19.51;69.22;95367.50;5116266;27;20170;-75
2021/08/16 05:13:53;;;;;;;10.40;6.90;;;;;;;19.69;67.68;95371.34;5116320;27;20176;-75
2021/08/16 05:16:19;;;;;;;8.63;6.60;;;;;;;19.98;66.25;95377.94;5116220;27;20202;-75
2021/08/16 05:18:44;;;;;;;9.77;7.18;;;;;;;19.72;67.75;95377.00;5116241;27;20234;-76
2021/08/16 05:21:09;;;;;;;9.43;5.97;;;;;;;19.56;67.66;95374.00;5116019;27;20179;-75
2021/08/16 05:23:35;;;;;;;7.25;5.47;;;;;;;19.43;67.17;95377.47;5098765;27;20171;-76
2021/08/16 05:26:00;;;;;;;11.50;5.60;;;;;;;19.32;67.30;95378.09;5116055;27;20540;-74
2021/08/16 05:28:26;;;;;;;7.82;5.80;;;;;;;19.41;67.06;95390.84;5134900;27;20455;-77
2021/08/16 05:30:51;;;;;;;7.78;5.57;;;;;;;19.36;66.87;95382.75;5135461;27;20202;-77
2021/08/16 05:33:16;;;;;;;8.05;5.53;;;;;;;19.16;67.89;95393.31;5116994;27;20216;-76
2021/08/16 05:35:42;;;;;;;8.23;5.53;;;;;;;19.20;68.37;95394.53;5116218;27;20214;-77
2021/08/16 05:38:07;;;;;;;9.40;5.60;;;;;;;19.15;68.98;95391.69;5116120;27;20206;-79
2021/08/16 05:40:32;;;;;;;7.47;6.00;;;;;;;19.51;68.28;95401.75;5117578;27;20194;-78
2021/08/16 05:42:58;;;;;;;7.35;5.68;;;;;;;19.51;67.57;95416.75;5100954;27;20179;-78
2021/08/16 05:45:23;;;;;;;9.82;6.00;;;;;;;19.50;67.21;95413.31;5117488;27;20195;-78
2021/08/16 05:47:48;;;;;;;9.32;5.63;;;;;;;19.42;68.16;95421.41;5113567;27;20203;-74
2021/08/16 05:50:14;;;;;;;8.48;5.40;;;;;;;19.32;66.99;95428.94;5090672;27;20225;-76
2021/08/16 05:52:39;;;;;;;8.43;5.68;;;;;;;19.22;66.81;95428.53;5132896;27;20527;-76
2021/08/16 05:55:05;;;;;;;6.97;4.90;;;;;;;19.38;67.16;95438.66;5133474;27;20172;-76
2021/08/16 05:57:30;;;;;;;6.57;5.05;;;;;;;19.26;66.08;95445.56;5133373;27;20202;-76
2021/08/16 05:59:56;;;;;;;6.93;4.80;;;;;;;19.10;66.07;95441.50;5115373;27;20581;-76
2021/08/16 06:02:22;;;;;;;5.95;4.97;;;;;;;19.24;66.01;95437.03;5115355;27;20179;-76
2021/08/16 06:04:47;;;;;;;7.15;4.95;;;;;;;19.62;64.37;95446.97;5115313;27;20591;-76
2021/08/16 06:07:12;;;;;;;8.70;5.10;;;;;;;19.75;64.21;95453.00;5115361;27;20281;-76
2021/08/16 06:09:37;;;;;;;9.38;5.13;;;;;;;19.98;63.41;95449.09;5115214;27;20178;-75
2021/08/16 06:12:03;;;;;;;9.57;4.72;;;;;;;20.23;62.41;95454.44;5115002;27;20175;-76
2021/08/16 06:14:29;;;;;;;5.55;4.70;;;;;;;20.40;60.99;95452.94;5097919;27;20629;-76
2021/08/16 06:16:54;;;;;;;6.15;3.85;;;;;;;20.47;60.36;95450.31;5133380;27;20212;-75
2021/08/16 06:19:19;;;;;;;7.47;4.43;;;;;;;20.72;60.24;95460.91;5114838;27;20230;-76
2021/08/16 06:21:45;;;;;;;7.93;4.22;;;;;;;20.57;59.21;95458.56;5132165;27;20171;-76
2021/08/16 06:24:11;;;;;;;5.90;3.90;;;;;;;20.52;58.67;95461.84;5114279;27;20179;-75
2021/08/16 06:26:37;;;;;;;6.32;4.13;;;;;;;20.64;58.76;95470.69;5131941;27;20701;-76
2021/08/16 06:29:03;;;;;;;7.90;4.50;;;;;;;20.25;58.43;95471.69;5114238;27;20658;-75
2021/08/16 06:31:29;;;;;;;5.40;4.13;;;;;;;20.14;58.50;95471.50;5114418;27;20321;-76
2021/08/16 06:33:54;;;;;;;6.00;4.03;;;;;;;20.23;58.51;95467.63;5114863;27;20561;-75
2021/08/16 06:36:19;;;;;;;5.03;3.60;;;;;;;20.68;57.17;95470.31;5114527;27;20195;-76
2021/08/16 06:38:47;;;;;;;7.38;3.47;;;;;;;21.74;54.33;95471.09;5133408;27;20195;-76
2021/08/16 06:41:14;;;;;;;5.03;3.53;;;;;;;22.73;49.60;95453.25;5097733;27;20582;-76
2021/08/16 06:43:40;;;;;;;8.02;3.33;;;;;;;24.15;47.17;95462.94;5113862;27;20642;-76
2021/08/16 06:46:05;;;;;;;6.00;3.90;;;;;;;24.45;44.59;95454.78;5114489;27;20207;-76
2021/08/16 06:48:30;;;;;;;6.57;3.80;;;;;;;25.91;42.46;95466.28;5113563;28;20686;-76
2021/08/16 06:50:56;;;;;;;7.43;3.30;;;;;;;26.47;41.28;95459.03;5114741;27;20777;-77
2021/08/16 06:53:21;;;;;;;5.07;3.00;;;;;;;26.88;39.97;95469.31;5098007;27;20174;-77
2021/08/16 06:55:47;;;;;;;4.45;2.70;;;;;;;26.45;40.39;95461.13;5114692;27;20194;-77
2021/08/16 06:58:13;;;;;;;6.95;3.45;;;;;;;26.44;39.43;95456.06;5133220;27;20591;-76
2021/08/16 07:00:48;;;;;;;5.32;3.47;;;;;;;26.64;38.93;95450.16;5114735;27;20187;-76
2021/08/16 07:03:13;;;;;;;6.13;3.65;;;;;;;26.57;39.65;95446.88;5114220;27;20171;-74
2021/08/16 07:05:43;;;;;;;7.07;3.47;;;;;;;25.35;42.68;95454.78;5114265;28;20175;-74
2021/08/16 07:08:09;;;;;;;5.07;3.22;;;;;;;25.62;41.24;95459.44;5114167;27;20581;-74
2021/08/16 07:10:34;;;;;;;6.85;2.95;;;;;;;25.86;40.67;95457.44;5114111;27;20235;-75
2021/08/16 07:13:00;;;;;;;4.38;3.08;;;;;;;25.26;42.55;95450.91;5132314;28;20203;-75
2021/08/16 07:15:25;;;;;;;4.40;3.00;;;;;;;24.26;44.39;95456.78;5114310;28;20171;-76
2021/08/16 07:17:50;;;;;;;4.85;3.47;;;;;;;24.23;44.21;95452.75;5114000;28;20206;-76
2021/08/16 07:20:16;;;;;;;4.95;3.00;;;;;;;23.53;46.61;95459.97;5114365;28;20634;-76
2021/08/16 07:22:41;;;;;;;5.65;3.75;;;;;;;22.77;49.09;95464.19;5113879;28;20190;-74
2021/08/16 07:25:07;;;;;;;4.55;3.70;;;;;;;22.43;50.23;95473.59;5113804;28;20205;-76
2021/08/16 07:27:32;;;;;;;6.40;3.33;;;;;;;22.05;51.23;95471.97;5132586;28;20198;-75
2021/08/16 07:29:58;;;;;;;8.32;3.78;;;;;;;22.22;51.49;95473.03;5114218;28;20163;-75
2021/08/16 07:32:23;;;;;;;5.20;3.70;;;;;;;22.01;51.60;95473.47;5113955;28;20167;-76
2021/08/16 07:34:48;;;;;;;7.05;4.30;;;;;;;22.05;50.59;95475.44;5131915;28;20179;-76
2021/08/16 07:37:14;;;;;;;7.72;3.97;;;;;;;21.72;51.79;95473.13;5114163;28;20198;-76
2021/08/16 07:39:40;;;;;;;10.45;4.25;;;;;;;21.13;53.59;95468.38;5113999;28;20202;-76
2021/08/16 07:42:05;;;;;;;6.45;3.97;;;;;;;21.26;52.95;95476.16;5096834;28;20228;-75
2021/08/16 07:44:31;;;;;;;6.60;3.80;;;;;;;21.75;51.77;95478.00;5132317;28;20202;-76
2021/08/16 07:47:00;;;;;;;6.68;3.78;;;;;;;21.82;51.64;95470.00;5113707;28;20195;-74
2021/08/16 07:49:26;;;;;;;5.80;3.85;;;;;;;21.81;52.15;95475.50;5132294;28;20163;-76
2021/08/16 07:51:52;;;;;;;8.52;3.88;;;;;;;21.42;52.22;95477.50;5118972;28;20262;-77
2021/08/16 07:54:17;;;;;;;6.65;3.97;;;;;;;21.05;52.78;95472.06;5096986;28;20262;-77
2021/08/16 07:56:44;;;;;;;8.38;4.47;;;;;;;20.81;53.33;95472.84;5113074;27;20655;-78
2021/08/16 07:59:09;;;;;;;8.82;4.03;;;;;;;20.94;54.34;95488.59;5111517;28;20709;-77
2021/08/16 08:01:34;;;;;;;6.88;4.13;;;;;;;20.69;54.70;95482.47;5115338;27;20175;-77
2021/08/16 08:04:00;;;;;;;4.70;3.83;;;;;;;20.85;54.38;95481.97;5118402;27;20691;-80
2021/08/16 08:06:26;;;;;;;6.20;3.83;;;;;;;20.65;54.90;95480.22;5137785;27;20270;-80
2021/08/16 08:08:51;;;;;;;7.63;4.30;;;;;;;20.17;54.42;95489.56;5119389;27;20256;-77
2021/08/16 08:11:16;;;;;;;8.20;4.38;;;;;;;20.01;56.12;95486.38;5136146;27;20182;-77
2021/08/16 08:13:41;;;;;;;8.70;4.22;;;;;;;20.00;56.37;95489.22;5100385;27;20182;-76
2021/08/16 08:16:07;;;;;;;7.63;4.03;;;;;;;20.11;57.23;95491.19;5100368;27;20305;-75
2021/08/16 08:18:32;;;;;;;9.25;4.95;;;;;;;19.86;56.51;95491.06;5117538;27;20231;-77
2021/08/16 08:20:57;;;;;;;5.97;4.25;;;;;;;20.00;56.07;95487.38;5135161;27;20259;-77
2021/08/16 08:23:23;;;;;;;5.97;4.40;;;;;;;20.03;56.39;95492.22;5135268;27;20175;-77
2021/08/16 08:25:48;;;;;;;5.35;4.07;;;;;;;20.35;55.72;95492.34;5135296;27;20228;-77
2021/08/16 08:28:15;;;;;;;6.90;4.90;;;;;;;20.34;55.05;95490.72;5117871;27;20198;-77
2021/08/16 08:30:42;;;;;;;9.38;4.38;;;;;;;20.14;54.59;95492.59;5097408;27;20268;-76
2021/08/16 08:33:07;;;;;;;8.38;4.45;;;;;;;20.12;55.59;95500.72;5099956;27;20182;-77
2021/08/16 08:35:33;;;;;;;10.50;4.13;;;;;;;20.11;55.79;95500.94;5100694;27;20793;-78
2021/08/16 08:37:58;;;;;;;8.18;4.80;;;;;;;20.29;54.44;95503.72;5117094;27;20202;-77
2021/08/16 08:40:23;;;;;;;10.02;4.70;;;;;;;20.09;55.15;95501.16;5100210;27;20638;-77
2021/08/16 08:42:52;;;;;;;9.35;3.90;;;;;;;20.04;55.04;95514.13;5134935;27;20178;-77
2021/08/16 08:45:20;;;;;;;8.95;4.03;;;;;;;19.99;55.47;95509.50;5116783;27;20171;-76
2021/08/16 08:47:47;;;;;;;6.47;3.85;;;;;;;20.03;54.93;95507.25;5099752;27;20678;-77
2021/08/16 08:50:15;;;;;;;7.55;3.78;;;;;;;20.30;54.84;95507.97;5116972;27;20630;-77
2021/08/16 08:52:40;;;;;;;8.98;3.65;;;;;;;20.50;53.79;95503.47;5116462;27;20176;-77
2021/08/16 08:55:05;;;;;;;6.22;3.75;;;;;;;20.64;53.69;95505.00;5116225;27;20170;-74
2021/08/16 08:57:31;;;;;;;8.05;3.90;;;;;;;20.73;53.02;95499.47;5122969;27;20285;-76
2021/08/16 08:59:57;;;;;;;5.75;3.85;;;;;;;20.66;52.81;95510.06;5116540;27;20203;-75
2021/08/16 09:02:22;;;;;;;6.35;3.80;;;;;;;20.82;53.01;95504.28;5116252;27;20178;-75
2021/08/16 09:04:55;;;;;;;5.90;3.22;;;;;;;20.70;53.17;95510.47;5099512;27;20175;-76
2021/08/16 09:07:34;;;;;;;8.73;3.70;;;;;;;20.47;52.96;95511.78;5134827;27;20248;-74
2021/08/16 09:10:00;;;;;;;6.97;3.90;;;;;;;20.54;53.85;95504.66;5134794;27;20163;-76
2021/08/16 09:12:33;;;;;;;7.10;4.05;;;;;;;20.73;53.20;95500.28;5115672;27;20258;-76
2021/08/16 09:14:58;;;;;;;7.15;3.35;;;;;;;20.87;53.73;95501.84;5112332;27;20171;-76
2021/08/16 09:17:31;;;;;;;8.82;3.38;;;;;;;20.53;53.87;95504.88;5133855;27;20213;-77
2021/08/16 09:19:58;;;;;;;8.35;3.60;;;;;;;20.36;52.70;95507.13;5095334;28;20200;-77
2021/08/16 09:22:26;;;;;;;7.78;3.45;;;;;;;20.62;53.72;95507.03;5111078;27;20194;-77
2021/08/16 09:24:59;;;;;;;7.70;3.70;;;;;;;20.65;53.39;95493.41;5100519;27;20178;-78
2021/08/16 09:27:24;;;;;;;8.27;2.85;;;;;;;20.35;54.06;95505.53;5116083;27;20558;-78
2021/08/16 09:29:50;;;;;;;6.60;3.15;;;;;;;20.85;52.70;95503.09;5116184;27;20178;-77
2021/08/16 09:32:17;;;;;;;6.95;3.30;;;;;;;21.21;51.47;95513.78;5113466;27;20272;-78
2021/08/16 09:34:47;;;;;;;6.30;3.80;;;;;;;20.70;51.20;95506.00;5116685;27;20190;-76
2021/08/16 09:37:27;;;;;;;5.45;3.22;;;;;;;20.88;51.20;95497.38;5114475;27;20194;-75
2021/08/16 09:40:06;;;;;;;8.10;3.20;;;;;;;20.94;50.82;95493.88;5098710;28;20191;-76
2021/08/16 09:42:49;;;;;;;8.40;3.80;;;;;;;21.08;51.09;95499.88;5089832;27;20174;-75
2021/08/16 09:45:28;;;;;;;6.47;3.63;;;;;;;21.21;50.25;95497.94;5113388;27;20233;-76
2021/08/16 09:47:56;;;;;;;8.93;3.90;;;;;;;20.72;50.13;95492.59;5113151;27;20206;-76
2021/08/16 09:50:22;;;;;;;6.07;3.60;;;;;;;20.55;50.28;95479.88;5116665;27;20222;-76
2021/08/16 09:52:47;;;;;;;5.05;3.17;;;;;;;20.87;49.66;95491.28;5127212;27;20700;-74
2021/08/16 09:55:13;;;;;;;9.43;3.97;;;;;;;20.74;50.02;95485.25;5115282;27;20214;-75
2021/08/16 09:57:39;;;;;;;6.53;3.92;;;;;;;20.60;49.50;95484.53;5113824;27;20191;-75
2021/08/16 10:00:04;;;;;;;6.47;3.70;;;;;;;20.63;49.59;95476.19;5113227;27;20205;-76
2021/08/16 10:02:31;;;;;;;12.23;3.90;;;;;;;20.56;49.81;95470.94;5095936;27;20662;-76
2021/08/16 10:04:57;;;;;;;7.20;3.63;;;;;;;20.50;50.17;95485.00;5112993;27;20254;-77
2021/08/16 10:07:26;;;;;;;7.82;3.38;;;;;;;20.38;49.21;95478.72;5113383;27;20289;-76
2021/08/16 10:09:55;;;;;;;7.78;4.10;;;;;;;20.31;49.92;95475.28;5113428;27;20171;-75
2021/08/16 10:12:20;;;;;;;7.70;3.47;;;;;;;20.48;50.08;95475.66;5112764;27;20222;-76
2021/08/16 10:14:46;;;;;;;9.40;3.47;;;;;;;20.77;49.27;95476.94;5113961;27;20187;-74
2021/08/16 10:17:11;;;;;;;6.63;3.15;;;;;;;20.72;49.60;95484.66;5113341;27;20248;-75
2021/08/16 10:19:41;;;;;;;8.82;3.63;;;;;;;20.80;50.07;95481.78;5114052;27;20195;-78
2021/08/16 10:22:07;;;;;;;10.30;3.03;;;;;;;20.98;49.70;95473.13;5095732;27;20619;-75
2021/08/16 10:24:32;;;;;;;6.00;3.00;;;;;;;21.10;49.50;95471.41;5096781;27;20175;-76
2021/08/16 10:27:03;;;;;;;9.82;3.38;;;;;;;20.87;50.65;95470.16;5114270;27;20202;-75
2021/08/16 10:29:30;;;;;;;8.63;3.22;;;;;;;21.41;48.63;95465.31;5098343;27;20557;-75
2021/08/16 10:31:57;;;;;;;7.65;3.13;;;;;;;21.42;49.21;95470.38;5114844;27;20175;-76
2021/08/16 10:34:36;;;;;;;7.88;3.28;;;;;;;21.26;49.46;95467.44;5097599;27;20171;-75
2021/08/16 10:37:08;;;;;;;10.13;3.22;;;;;;;21.71;47.83;95465.44;5114689;27;20218;-75
2021/08/16 10:39:39;;;;;;;5.50;3.20;;;;;;;22.18;48.41;95461.28;5114917;27;20228;-75
2021/08/16 10:42:15;;;;;;;6.10;3.03;;;;;;;22.17;47.58;95453.56;5114385;27;20171;-75
2021/08/16 10:44:53;;;;;;;6.78;3.10;;;;;;;22.13;47.35;95455.03;5133157;27;20174;-75
2021/08/16 10:47:29;;;;;;;8.07;3.60;;;;;;;21.29;48.64;95461.75;5114075;27;20243;-75
2021/08/16 10:50:12;;;;;;;8.60;3.92;;;;;;;21.21;48.93;95458.34;5114392;28;20654;-75
2021/08/16 10:52:40;;;;;;;7.88;4.07;;;;;;;21.30;48.81;95453.63;5132312;27;20266;-75
2021/08/16 10:55:13;;;;;;;7.30;3.38;;;;;;;21.22;48.50;95456.50;5132636;27;20227;-75
2021/08/16 10:57:40;;;;;;;5.20;3.38;;;;;;;20.70;49.21;95462.97;5096888;27;20211;-75
2021/08/16 11:00:06;;;;;;;5.28;3.45;;;;;;;21.34;47.95;95462.72;5114007;28;20198;-75
2021/08/16 11:02:32;;;;;;;5.50;3.10;;;;;;;21.33;48.88;95466.38;5097024;27;20168;-75
2021/08/16 11:04:58;;;;;;;7.30;3.40;;;;;;;21.27;48.13;95472.53;5114182;28;20171;-74
2021/08/16 11:07:24;;;;;;;7.32;3.60;;;;;;;21.33;48.72;95471.69;5097052;28;20587;-74
2021/08/16 11:09:57;;;;;;;7.88;3.42;;;;;;;21.09;48.27;95473.25;5096991;27;20619;-74
2021/08/16 11:12:39;;;;;;;5.47;2.88;;;;;;;21.02;48.68;95461.13;5113987;28;20583;-75
2021/08/16 11:15:05;;;;;;;5.25;3.25;;;;;;;21.13;49.19;95463.88;5132408;28;20178;-74
2021/08/16 11:17:30;;;;;;;5.05;3.00;;;;;;;21.40;49.16;95455.78;5114060;28;20195;-74
2021/08/16 11:20:01;;;;;;;5.30;3.20;;;;;;;21.49;49.30;95457.13;5113824;28;20198;-75
2021/08/16 11:22:27;;;;;;;7.78;3.45;;;;;;;21.47;49.61;95445.97;5131929;28;20171;-75
2021/08/16 11:24:53;;;;;;;6.68;3.58;;;;;;;21.21;49.90;95442.50;5097230;28;20171;-75
2021/08/16 11:27:27;;;;;;;7.82;3.80;;;;;;;21.68;47.46;95455.31;5132283;28;20662;-75